Time;durP1;ratioP1;P1;durP2;ratioP2;P2;SDS_P1;SDS_P2;PMS_P1;PMS_P2;Temp;Humidity;BMP_temperature;BMP_pressure;BME280_temperature;BME280_humidity;BME280_pressure;Samples;Min_cycle;Max_cycle;Signal;HPM_P1;HPM_P2
2021/03/26 00:02:10;;;;;;;9.13;5.62;;;;;;;6.62;61.46;100761.56;1819585;79;21151;-64
2021/03/26 00:04:39;;;;;;;9.40;4.87;;;;;;;6.63;61.45;100763.73;1797912;79;21158;-64
2021/03/26 00:07:07;;;;;;;8.08;5.37;;;;;;;6.59;61.50;100761.53;1787776;79;21099;-64
2021/03/26 00:09:36;;;;;;;7.30;5.50;;;;;;;6.60;61.59;100759.77;1722354;82;21152;-55
2021/03/26 00:12:12;;;;;;;9.18;6.30;;;;;;;6.62;61.42;100758.05;1800630;79;21140;-64
2021/03/26 00:14:41;;;;;;;8.65;5.50;;;;;;;6.61;61.38;100758.92;1787125;80;21601;-64
2021/03/26 00:17:10;;;;;;;8.18;5.47;;;;;;;6.61;61.40;100760.22;1788200;79;21103;-54
2021/03/26 00:19:39;;;;;;;9.08;5.65;;;;;;;6.63;61.42;100750.20;1787135;80;21210;-55
2021/03/26 00:22:06;;;;;;;7.95;5.15;;;;;;;6.64;61.17;100757.20;1724735;82;21531;-65
2021/03/26 00:24:34;;;;;;;7.28;5.10;;;;;;;6.63;61.11;100763.73;1815350;79;21151;-64
2021/03/26 00:27:02;;;;;;;8.33;4.70;;;;;;;6.61;61.13;100757.20;1739911;82;21108;-64
2021/03/26 00:29:31;;;;;;;8.15;5.40;;;;;;;6.59;60.95;100754.99;1800659;80;21167;-64
2021/03/26 00:31:59;;;;;;;7.15;4.95;;;;;;;6.54;60.71;100757.54;1798216;79;21538;-55
2021/03/26 00:34:28;;;;;;;6.90;4.50;;;;;;;6.47;60.66;100757.02;1787036;80;21147;-55
2021/03/26 00:36:56;;;;;;;6.75;4.60;;;;;;;6.37;60.69;100759.98;1787122;79;21110;-64
2021/03/26 00:39:24;;;;;;;8.40;5.60;;;;;;;6.43;60.58;100758.30;1720217;83;21337;-64
2021/03/26 00:41:53;;;;;;;8.65;5.28;;;;;;;6.43;60.51;100763.52;1793315;79;21151;-64
2021/03/26 00:44:22;;;;;;;9.43;5.72;;;;;;;6.39;60.50;100762.19;1787775;79;21166;-64
2021/03/26 00:46:50;;;;;;;7.47;5.15;;;;;;;6.39;60.44;100766.55;1747565;82;21150;-64
2021/03/26 00:49:18;;;;;;;8.43;4.90;;;;;;;6.35;60.37;100765.62;1788869;79;21130;-56
2021/03/26 00:51:46;;;;;;;8.30;4.90;;;;;;;6.36;60.43;100772.61;1790373;79;21099;-65
2021/03/26 00:54:17;;;;;;;6.65;4.58;;;;;;;6.37;60.50;100775.67;1806796;79;21293;-64
2021/03/26 00:56:45;;;;;;;7.90;5.40;;;;;;;5.56;62.56;100778.94;1712382;84;21217;-55
2021/03/26 00:59:14;;;;;;;8.35;4.97;;;;;;;5.43;62.97;100781.80;1790248;79;21190;-64
2021/03/26 01:01:42;;;;;;;7.42;4.80;;;;;;;6.24;60.94;100770.73;1742132;82;21156;-64
2021/03/26 01:04:11;;;;;;;9.35;5.83;;;;;;;6.32;60.61;100773.42;1807602;79;21166;-55
2021/03/26 01:06:40;;;;;;;8.50;5.45;;;;;;;6.35;60.37;100770.84;1741830;82;21194;-65
2021/03/26 01:09:09;;;;;;;9.80;5.30;;;;;;;6.35;60.39;100767.38;1780331;79;21147;-64
2021/03/26 01:11:39;;;;;;;7.72;5.05;;;;;;;6.34;60.19;100761.70;1779329;81;21313;-65
2021/03/26 01:14:14;;;;;;;;;;;;;;;6.28;60.23;100772.94;1802308;79;21278;-65
2021/03/26 01:16:43;;;;;;;7.83;4.75;;;;;;;6.27;60.17;100771.19;1800675;79;20187;-65
2021/03/26 01:19:14;;;;;;;9.65;5.45;;;;;;;6.32;60.03;100776.48;1779086;80;21124;-55
2021/03/26 01:21:42;;;;;;;8.08;4.58;;;;;;;6.31;59.94;100776.04;1779104;81;21185;-65
2021/03/26 01:24:16;;;;;;;9.20;5.55;;;;;;;6.31;59.93;100772.98;1761223;80;21554;-55
2021/03/26 01:26:44;;;;;;;7.65;5.17;;;;;;;6.29;59.97;100774.70;1771647;79;21135;-54
2021/03/26 01:29:23;;;;;;;7.70;5.12;;;;;;;6.34;59.88;100769.09;1852297;77;22143;-53
2021/03/26 01:32:01;;;;;;;8.05;5.35;;;;;;;6.30;59.88;100777.76;1785628;80;21155;-55
2021/03/26 01:34:29;;;;;;;7.10;4.58;;;;;;;6.32;59.89;100777.80;1762700;80;21171;-55
2021/03/26 01:36:59;;;;;;;8.40;5.35;;;;;;;6.32;59.86;100779.96;1789519;80;21104;-55
2021/03/26 01:39:27;;;;;;;8.78;4.92;;;;;;;6.33;59.89;100774.32;1793016;80;21164;-55
2021/03/26 01:41:56;;;;;;;8.00;4.87;;;;;;;6.34;59.83;100774.77;1792145;80;21175;-64
2021/03/26 01:44:27;;;;;;;7.37;5.22;;;;;;;6.34;59.81;100776.94;1777868;79;21115;-55
2021/03/26 01:46:56;;;;;;;8.70;4.85;;;;;;;6.34;59.72;100778.24;1781591;80;21309;-56
2021/03/26 01:49:25;;;;;;;9.15;5.35;;;;;;;6.34;59.73;100784.78;1782852;80;21111;-64
2021/03/26 01:51:54;;;;;;;8.50;5.53;;;;;;;6.34;59.67;100788.70;1788843;80;21170;-55
2021/03/26 01:54:27;;;;;;;7.33;4.95;;;;;;;6.36;59.59;100784.37;1805653;78;21158;-64
2021/03/26 01:56:56;;;;;;;8.83;5.33;;;;;;;6.36;59.44;100783.51;1820152;79;21167;-55
2021/03/26 01:59:32;;;;;;;10.00;7.00;;;;;;;6.40;59.50;100786.16;1816358;77;27991;-53
2021/03/26 02:02:10;;;;;;;8.33;5.90;;;;;;;6.39;59.37;100792.70;1759447;80;21135;-53
2021/03/26 02:04:44;;;;;;;8.05;5.08;;;;;;;6.44;59.23;100792.73;1760882;80;21170;-55
2021/03/26 02:07:19;;;;;;;8.08;5.25;;;;;;;6.44;59.14;100794.91;1758204;81;21155;-64
2021/03/26 02:09:47;;;;;;;8.78;5.28;;;;;;;6.47;59.27;100795.39;1761473;80;21744;-54
2021/03/26 02:12:23;;;;;;;9.85;5.67;;;;;;;6.50;59.24;100802.83;1747483;80;21174;-55
2021/03/26 02:14:55;;;;;;;10.63;5.45;;;;;;;6.53;59.01;100804.61;1731772;81;21192;-54
2021/03/26 02:17:28;;;;;;;8.83;5.78;;;;;;;6.53;58.95;100809.40;1731783;82;21240;-64
2021/03/26 02:20:34;;;;;;;7.97;5.08;;;;;;;6.53;58.84;100817.25;1732388;80;21187;-64
2021/03/26 02:23:10;;;;;;;8.20;5.47;;;;;;;6.52;58.62;100814.18;1731726;82;21174;-53
2021/03/26 02:25:41;;;;;;;9.33;5.65;;;;;;;6.50;58.64;100813.73;1731397;81;21186;-64
2021/03/26 02:28:10;;;;;;;8.70;5.60;;;;;;;6.50;58.59;100813.73;1731840;83;21333;-64
2021/03/26 02:30:45;;;;;;;8.48;5.50;;;;;;;6.50;58.62;100813.28;1731065;80;21175;-55
2021/03/26 02:33:14;;;;;;;8.58;5.70;;;;;;;6.50;58.52;100815.90;1731820;83;21174;-55
2021/03/26 02:35:47;;;;;;;8.85;5.85;;;;;;;6.50;58.29;100820.27;1731591;81;21314;-64
2021/03/26 02:38:34;;;;;;;9.85;5.67;;;;;;;6.52;58.21;100814.62;1830142;77;22186;-53
2021/03/26 02:41:27;;;;;;;8.35;5.45;;;;;;;6.48;58.26;100821.55;1768634;80;21322;-54
2021/03/26 02:44:18;;;;;;;10.00;5.80;;;;;;;6.52;58.27;100827.70;1733876;81;21151;-54
2021/03/26 02:47:21;;;;;;;10.15;6.08;;;;;;;6.50;58.10;100821.13;1731795;82;21162;-65
2021/03/26 02:53:14;;;;;;;9.55;5.72;;;;;;;6.56;57.96;100824.27;1834804;77;22175;-53
2021/03/26 02:56:18;;;;;;;8.93;5.47;;;;;;;6.53;58.06;100830.33;1728754;82;21184;-55
2021/03/26 02:58:55;;;;;;;9.88;6.20;;;;;;;6.55;57.98;100836.45;1701547;84;21610;-63
2021/03/26 03:01:40;;;;;;;8.40;5.83;;;;;;;6.57;57.85;100834.28;1671376;86;21191;-54
2021/03/26 03:04:16;;;;;;;9.78;5.90;;;;;;;6.57;57.71;100832.56;1678731;85;21170;-55
2021/03/26 03:06:58;;;;;;;12.68;6.58;;;;;;;6.59;57.55;100836.48;1695739;83;21151;-53
2021/03/26 03:09:36;;;;;;;10.85;6.33;;;;;;;6.60;57.27;100833.91;1831571;77;22583;-59
2021/03/26 03:12:10;;;;;;;9.58;6.30;;;;;;;6.55;57.39;100832.53;1761985;81;21119;-53
2021/03/26 03:14:48;;;;;;;10.08;6.00;;;;;;;6.45;57.27;100834.58;1740571;80;21258;-54
2021/03/26 03:17:28;;;;;;;10.30;6.30;;;;;;;6.38;57.42;100835.39;1757823;81;21119;-54
2021/03/26 03:20:32;;;;;;;10.28;6.35;;;;;;;6.37;57.51;100838.42;1761918;81;21834;-54
2021/03/26 03:23:15;;;;;;;10.43;6.62;;;;;;;6.36;57.49;100830.57;1761838;81;21170;-54
2021/03/26 03:25:47;;;;;;;8.88;6.37;;;;;;;6.39;57.54;100842.38;1744893;81;21091;-63
2021/03/26 03:28:32;;;;;;;11.22;7.15;;;;;;;6.35;57.34;100845.81;1761820;81;21151;-64
2021/03/26 03:31:27;;;;;;;10.65;6.30;;;;;;;6.37;57.44;100844.09;1759445;81;21155;-62
2021/03/26 03:34:10;;;;;;;9.53;6.30;;;;;;;6.39;57.48;100844.55;1752876;81;21146;-63
2021/03/26 03:36:51;;;;;;;10.10;6.78;;;;;;;6.42;57.36;100846.75;1743928;81;21197;-63
2021/03/26 03:39:28;;;;;;;10.05;6.22;;;;;;;6.50;57.09;100851.65;1720238;80;21174;-63
2021/03/26 03:42:11;;;;;;;11.60;6.67;;;;;;;6.55;56.97;100846.05;1832278;77;22214;-53
2021/03/26 03:44:57;;;;;;;10.88;6.28;;;;;;;6.52;56.84;100854.72;1781730;80;21179;-63
2021/03/26 03:47:31;;;;;;;9.93;6.72;;;;;;;6.52;56.62;100851.24;1760238;81;21139;-54
2021/03/26 03:50:18;;;;;;;11.73;6.40;;;;;;;6.54;56.60;100852.14;1759942;81;21305;-53
2021/03/26 03:52:58;;;;;;;10.55;6.83;;;;;;;6.54;56.63;100849.52;1779229;80;21135;-54
2021/03/26 03:55:39;;;;;;;10.87;6.60;;;;;;;6.55;56.59;100857.37;1774339;80;21313;-61
2021/03/26 03:58:26;;;;;;;11.63;6.85;;;;;;;6.46;56.70;100856.39;1779684;80;21133;-54
2021/03/26 04:01:00;;;;;;;9.35;5.97;;;;;;;6.45;56.66;100854.19;1765697;80;21158;-53
2021/03/26 04:03:45;;;;;;;9.38;6.05;;;;;;;6.32;56.77;100859.70;1790043;80;21139;-54
2021/03/26 04:06:18;;;;;;;10.75;6.85;;;;;;;6.29;56.95;100858.36;1742603;81;21169;-53
2021/03/26 04:08:55;;;;;;;11.70;6.90;;;;;;;6.27;56.88;100859.20;1761836;81;21135;-54
2021/03/26 04:11:40;;;;;;;9.15;5.90;;;;;;;6.27;57.06;100860.06;1768985;80;21350;-64
2021/03/26 04:14:42;;;;;;;11.48;6.80;;;;;;;6.25;56.75;100856.55;1763361;80;21711;-54
2021/03/26 04:17:23;;;;;;;15.50;6.90;;;;;;;6.22;56.60;100859.12;1789043;80;21119;-65
2021/03/26 04:19:56;;;;;;;13.22;7.30;;;;;;;6.20;57.18;100859.12;1778667;80;21184;-54
2021/03/26 04:22:30;;;;;;;8.58;6.12;;;;;;;6.28;56.99;100863.58;1763176;80;21135;-54
2021/03/26 04:25:11;;;;;;;11.25;6.90;;;;;;;6.29;56.87;100858.80;1798687;80;21184;-55
2021/03/26 04:27:49;;;;;;;13.58;6.75;;;;;;;6.32;56.87;100860.15;1823343;77;22558;-62
2021/03/26 04:30:36;;;;;;;14.75;7.15;;;;;;;6.29;57.03;100860.11;1762001;80;21554;-64
2021/03/26 04:33:18;;;;;;;9.80;6.50;;;;;;;6.33;56.93;100860.16;1818380;77;22175;-62
2021/03/26 04:35:49;;;;;;;;;;;;;;;6.32;56.98;100862.31;1704162;83;21316;-63
2021/03/26 04:38:27;;;;;;;21.95;6.58;;;;;;;6.40;56.64;100859.38;1699112;83;20159;-64
2021/03/26 04:41:17;;;;;;;13.25;7.30;;;;;;;6.45;56.42;100863.34;1728379;83;21687;-63
2021/03/26 04:44:06;;;;;;;11.53;6.83;;;;;;;6.50;56.34;100863.42;1713918;84;21203;-64
2021/03/26 04:46:54;;;;;;;11.38;6.65;;;;;;;6.51;56.09;100866.04;1681057;84;21152;-64
2021/03/26 04:49:37;;;;;;;16.45;7.15;;;;;;;6.53;56.19;100868.24;1709975;83;21137;-63
2021/03/26 04:52:20;;;;;;;13.05;6.67;;;;;;;6.58;56.28;100865.70;1711321;83;21201;-63
2021/03/26 04:55:07;;;;;;;11.73;6.97;;;;;;;6.63;56.45;100871.84;1709275;83;21146;-63
2021/03/26 04:58:00;;;;;;;10.90;6.55;;;;;;;6.68;56.35;100875.39;1721612;83;21173;-53
2021/03/26 05:00:42;;;;;;;13.48;8.03;;;;;;;6.76;55.95;100874.20;1816688;77;22650;-53
2021/03/26 05:03:15;;;;;;;11.65;6.80;;;;;;;6.77;55.88;100872.02;1764791;81;21114;-54
2021/03/26 05:05:50;;;;;;;13.90;7.30;;;;;;;6.87;56.05;100879.53;1738340;81;21247;-64
2021/03/26 05:08:25;;;;;;;;;;;;;;;6.87;56.08;100879.95;1750993;81;21576;-54
2021/03/26 05:11:12;;;;;;;12.45;7.17;;;;;;;6.89;55.93;100885.67;1723145;83;20254;-63
2021/03/26 05:13:58;;;;;;;10.15;6.72;;;;;;;6.89;55.66;100886.08;1726562;82;21126;-53
2021/03/26 05:16:42;;;;;;;10.13;6.58;;;;;;;6.90;55.79;100886.53;1714107;82;21167;-65
2021/03/26 05:19:29;;;;;;;12.10;6.95;;;;;;;6.96;55.72;100886.19;1832988;77;22584;-62
2021/03/26 05:22:37;;;;;;;12.45;7.30;;;;;;;6.90;55.33;100891.34;1765030;81;21089;-55
2021/03/26 05:25:31;;;;;;;13.55;7.83;;;;;;;6.99;55.59;100890.56;1816547;77;20121;-53
2021/03/26 05:28:23;;;;;;;10.20;6.90;;;;;;;6.99;55.35;100894.48;1777245;80;21159;-63
2021/03/26 05:30:54;;;;;;;10.38;6.65;;;;;;;6.97;55.13;100894.48;1779544;79;21278;-63
2021/03/26 05:33:34;;;;;;;10.55;6.70;;;;;;;6.99;55.04;100895.38;1774387;80;21274;-64
2021/03/26 05:36:12;;;;;;;10.07;6.70;;;;;;;7.02;55.06;100898.45;1723776;83;21195;-64
2021/03/26 05:39:09;;;;;;;13.30;7.50;;;;;;;7.04;55.01;100906.33;1705474;82;21160;-65
2021/03/26 05:42:28;;;;;;;11.08;6.65;;;;;;;7.07;55.01;100909.84;1742715;81;21573;-64
2021/03/26 05:46:01;;;;;;;10.98;6.95;;;;;;;7.13;55.02;100911.64;1816444;77;22242;-64
2021/03/26 05:49:00;;;;;;;11.88;7.35;;;;;;;7.13;54.85;100916.88;1774582;80;21101;-55
2021/03/26 05:51:58;;;;;;;11.15;6.50;;;;;;;7.25;56.04;100913.53;1773486;80;21150;-55
2021/03/26 05:55:07;;;;;;;16.07;7.95;;;;;;;7.29;54.93;100914.87;1795562;80;21158;-55
2021/03/26 05:58:10;;;;;;;14.38;8.85;;;;;;;7.31;55.33;100921.42;1764541;80;21592;-54
2021/03/26 06:00:47;;;;;;;16.07;8.30;;;;;;;7.32;55.22;100923.17;1782223;79;21157;-54
2021/03/26 06:04:23;;;;;;;11.88;8.18;;;;;;;7.38;55.06;100924.55;1834779;77;22180;-53
2021/03/26 06:07:44;;;;;;;12.68;7.92;;;;;;;7.36;55.32;100917.56;1792609;80;21191;-54
2021/03/26 06:11:12;;;;;;;11.73;7.03;;;;;;;7.39;55.29;100918.90;1782797;80;21728;-55
2021/03/26 06:13:57;;;;;;;10.10;6.35;;;;;;;7.43;55.23;100924.61;1794260;80;21293;-63
2021/03/26 06:17:22;;;;;;;12.65;7.30;;;;;;;7.43;54.30;100926.78;1792555;80;21215;-57
2021/03/26 06:20:38;;;;;;;22.73;12.68;;;;;;;6.83;56.04;100934.00;1787885;80;21164;-63
2021/03/26 06:23:45;;;;;;;14.95;8.98;;;;;;;7.22;55.52;100939.23;1731543;81;21174;-55
2021/03/26 06:26:50;;;;;;;13.22;8.55;;;;;;;7.48;54.96;100936.43;1741454;82;21148;-63
2021/03/26 06:29:44;;;;;;;15.80;9.20;;;;;;;7.55;54.73;100937.80;1723389;83;21575;-56
2021/03/26 06:33:00;;;;;;;12.63;7.85;;;;;;;7.61;54.81;100935.69;1714682;83;21138;-63
2021/03/26 06:35:55;;;;;;;12.30;7.28;;;;;;;7.66;54.84;100939.23;1723286;82;21178;-64
2021/03/26 06:39:02;;;;;;;11.33;7.22;;;;;;;7.70;54.98;100941.44;1714736;83;21191;-64
2021/03/26 06:42:07;;;;;;;12.75;7.05;;;;;;;7.71;54.36;100940.57;1728995;83;21220;-64
2021/03/26 06:45:15;;;;;;;11.65;7.15;;;;;;;7.71;53.88;100940.57;1735630;82;21142;-56
2021/03/26 06:48:00;;;;;;;14.50;8.05;;;;;;;7.77;54.65;100948.48;1707394;83;21167;-55
2021/03/26 06:50:48;;;;;;;10.08;6.12;;;;;;;7.80;54.53;100948.52;1716375;83;21192;-54
2021/03/26 06:53:52;;;;;;;14.87;7.33;;;;;;;7.85;54.32;100951.16;1710032;82;21133;-62
2021/03/26 06:56:53;;;;;;;13.48;7.08;;;;;;;7.88;54.28;100952.50;1741343;82;21539;-55
2021/03/26 06:59:58;;;;;;;9.85;6.20;;;;;;;7.93;54.16;100953.41;1703046;84;21147;-55
2021/03/26 07:03:05;;;;;;;11.10;6.92;;;;;;;8.03;54.01;100937.31;1819288;77;22194;-54
2021/03/26 07:05:56;;;;;;;13.18;8.40;;;;;;;8.07;54.19;100952.20;1775301;80;21158;-54
2021/03/26 07:08:54;;;;;;;12.47;7.33;;;;;;;8.16;54.14;100956.66;1752797;80;21107;-56
2021/03/26 07:11:35;;;;;;;17.45;9.18;;;;;;;8.26;54.29;100958.89;1772260;80;21115;-56
2021/03/26 07:14:31;;;;;;;13.58;9.00;;;;;;;8.37;54.53;100964.20;1761643;80;21150;-55
2021/03/26 07:17:33;;;;;;;21.20;10.55;;;;;;;8.49;54.78;100963.00;1720266;83;21171;-55
2021/03/26 07:20:26;;;;;;;15.58;10.45;;;;;;;7.84;56.09;100973.89;1720469;83;21178;-56
2021/03/26 07:23:35;;;;;;;15.88;9.90;;;;;;;7.83;56.05;100972.55;1725746;81;21324;-56
2021/03/26 07:26:55;;;;;;;14.85;9.45;;;;;;;8.72;54.47;100970.11;1702413;83;21214;-56
2021/03/26 07:29:50;;;;;;;17.12;9.60;;;;;;;9.06;53.82;100966.30;1778813;80;21288;-55
2021/03/26 07:32:23;;;;;;;13.95;9.18;;;;;;;9.42;53.50;100960.73;1759239;81;21217;-55
2021/03/26 07:35:17;;;;;;;14.38;8.25;;;;;;;9.79;53.98;100966.02;1767480;81;21158;-56
2021/03/26 07:38:31;;;;;;;14.28;8.20;;;;;;;10.01;52.34;100970.40;1767557;81;21182;-57
2021/03/26 07:41:39;;;;;;;24.18;13.78;;;;;;;10.14;51.03;100966.89;1766565;81;21654;-56
2021/03/26 07:44:39;;;;;;;16.73;11.08;;;;;;;10.23;50.25;100965.99;1767257;81;21150;-55
2021/03/26 07:47:36;;;;;;;28.20;13.83;;;;;;;10.30;49.64;100962.90;1767411;81;21166;-55
2021/03/26 07:50:54;;;;;;;19.85;10.72;;;;;;;10.38;50.22;100967.26;1750618;81;21186;-55
2021/03/26 07:53:30;;;;;;;20.52;12.68;;;;;;;10.42;49.59;100970.81;1764276;81;21613;-56
2021/03/26 07:56:25;;;;;;;25.77;16.73;;;;;;;10.51;48.92;100968.16;1678617;84;21141;-56
2021/03/26 07:59:20;;;;;;;17.07;11.60;;;;;;;10.76;49.56;100975.11;1751754;81;21562;-57
2021/03/26 08:02:20;;;;;;;12.98;9.20;;;;;;;11.09;50.33;100970.58;1748700;81;21189;-56
2021/03/26 08:04:57;;;;;;;12.53;8.58;;;;;;;11.50;50.72;100965.93;1712327;82;21158;-56
2021/03/26 08:08:21;;;;;;;12.47;8.45;;;;;;;11.95;49.08;100965.61;1743775;81;21166;-56
2021/03/26 08:11:21;;;;;;;17.70;10.85;;;;;;;12.29;49.69;100962.25;1747514;81;21141;-56
2021/03/26 08:14:29;;;;;;;14.13;10.68;;;;;;;12.71;46.82;100950.36;1703855;84;21157;-55
2021/03/26 08:17:33;;;;;;;43.28;30.77;;;;;;;13.08;48.38;100953.38;1742464;81;21560;-55
2021/03/26 08:20:24;;;;;;;15.58;10.68;;;;;;;13.63;46.66;100947.36;1746237;81;21131;-56
2021/03/26 08:23:15;;;;;;;16.20;14.30;;;;;;;13.97;45.98;100937.06;1766870;81;21174;-56
2021/03/26 08:26:12;;;;;;;14.60;10.55;;;;;;;14.25;43.85;100934.37;1753056;81;21833;-55
2021/03/26 08:29:17;;;;;;;15.95;10.13;;;;;;;14.48;44.18;100933.07;1714647;83;21170;-56
2021/03/26 08:32:02;;;;;;;9.58;7.85;;;;;;;14.78;44.54;100934.70;1756590;81;21566;-56
2021/03/26 08:35:02;;;;;;;15.88;11.65;;;;;;;15.02;42.29;100934.63;1711938;81;21158;-56
2021/03/26 08:37:48;;;;;;;13.18;9.43;;;;;;;15.22;43.05;100935.97;1736220;83;21197;-55
2021/03/26 08:40:26;;;;;;;11.57;8.23;;;;;;;15.37;41.10;100944.02;1738637;81;21616;-56
2021/03/26 08:42:53;;;;;;;38.85;35.25;;;;;;;15.55;42.03;100939.59;1736545;83;21565;-56
2021/03/26 08:45:47;;;;;;;15.43;13.83;;;;;;;15.73;41.16;100941.39;1756551;81;21142;-57
2021/03/26 08:48:44;;;;;;;9.90;7.90;;;;;;;15.88;40.98;100937.50;1766822;81;21202;-57
2021/03/26 08:51:37;;;;;;;11.40;7.72;;;;;;;16.21;38.06;100933.55;1674087;81;21408;-56
2021/03/26 08:54:20;;;;;;;9.55;6.72;;;;;;;16.44;39.71;100936.89;1741534;81;21300;-58
2021/03/26 08:57:13;;;;;;;9.45;6.00;;;;;;;16.50;35.38;100927.91;1744730;81;21158;-57
2021/03/26 09:00:12;;;;;;;8.78;5.95;;;;;;;16.47;37.32;100929.31;1757854;81;21138;-56
2021/03/26 09:03:12;;;;;;;10.38;6.00;;;;;;;16.46;38.44;100937.73;1764151;81;21169;-57
2021/03/26 09:06:05;;;;;;;8.73;5.72;;;;;;;16.65;36.95;100929.25;1732220;81;21147;-57
2021/03/26 09:09:02;;;;;;;9.08;5.72;;;;;;;16.73;35.99;100926.36;1684585;83;21642;-57
2021/03/26 09:12:18;;;;;;;8.13;5.05;;;;;;;16.88;35.81;100928.57;1697383;83;21172;-56
2021/03/26 09:14:59;;;;;;;8.63;5.20;;;;;;;17.07;36.54;100926.70;1676263;84;21146;-57
2021/03/26 09:17:43;;;;;;;9.43;5.25;;;;;;;17.32;34.75;100925.95;1674195;85;21576;-57
2021/03/26 09:20:32;;;;;;;7.70;5.20;;;;;;;17.36;35.12;100923.61;1686726;84;21625;-56
2021/03/26 09:23:37;;;;;;;7.12;5.28;;;;;;;17.49;35.60;100928.06;1688079;84;21634;-56
2021/03/26 09:26:40;;;;;;;10.15;6.67;;;;;;;17.83;35.70;100926.49;1675375;86;21231;-57
2021/03/26 09:29:14;;;;;;;8.30;5.83;;;;;;;17.88;34.81;100921.47;1698317;83;21261;-57
2021/03/26 09:31:53;;;;;;;7.95;5.83;;;;;;;17.94;35.27;100929.22;1676011;85;21162;-57
2021/03/26 09:34:29;;;;;;;7.67;5.70;;;;;;;17.94;34.27;100921.23;1668286;85;21159;-57
2021/03/26 09:37:38;;;;;;;11.38;7.15;;;;;;;18.11;35.45;100908.25;1680661;84;21127;-57
2021/03/26 09:40:19;;;;;;;10.40;5.42;;;;;;;18.36;34.97;100914.01;1622739;86;21186;-56
2021/03/26 09:42:54;;;;;;;10.20;7.33;;;;;;;18.39;32.20;100912.56;1695747;85;21155;-57
2021/03/26 09:45:41;;;;;;;8.80;5.60;;;;;;;18.32;32.90;100919.08;1722433;83;22265;-57
2021/03/26 09:48:51;;;;;;;9.40;5.25;;;;;;;18.41;34.00;100916.05;1725732;82;21626;-57
2021/03/26 09:51:31;;;;;;;7.00;4.87;;;;;;;18.58;33.75;100912.75;1733785;82;21167;-57
2021/03/26 09:54:10;;;;;;;7.50;5.25;;;;;;;18.58;32.85;100917.23;1710551;83;21633;-57
2021/03/26 09:57:03;;;;;;;7.90;4.65;;;;;;;18.62;33.08;100919.31;1812033;77;22182;-55
2021/03/26 10:00:11;;;;;;;49.27;33.08;;;;;;;18.73;32.93;100918.00;1779973;80;21553;-55
2021/03/26 10:03:19;;;;;;;17.30;14.93;;;;;;;19.02;32.04;100920.48;1788340;80;21107;-57
2021/03/26 10:06:08;;;;;;;19.17;15.28;;;;;;;19.26;32.52;100918.64;1767397;80;21126;-56
2021/03/26 10:11:32;;;;;;;19.45;15.23;;;;;;;19.42;32.11;100911.36;1784272;80;21411;-57
2021/03/26 10:14:14;;;;;;;50.10;40.33;;;;;;;19.57;32.95;100916.08;1791607;80;21553;-57
2021/03/26 10:16:57;;;;;;;14.45;11.18;;;;;;;19.74;29.59;100906.47;1707987;84;21150;-57
2021/03/26 10:19:34;;;;;;;8.30;6.25;;;;;;;19.29;27.12;100908.33;1732454;82;21139;-56
2021/03/26 10:22:03;;;;;;;9.80;5.97;;;;;;;19.13;28.92;100910.74;1708108;84;21142;-57
2021/03/26 10:24:34;;;;;;;10.38;6.97;;;;;;;19.23;30.74;100916.09;1732134;82;21170;-57
2021/03/26 10:27:18;;;;;;;9.05;5.67;;;;;;;19.57;31.40;100909.84;1707992;83;21586;-57
2021/03/26 10:30:00;;;;;;;10.10;7.83;;;;;;;19.91;31.01;100906.66;1736118;82;21600;-63
2021/03/26 10:32:33;;;;;;;11.50;8.70;;;;;;;20.19;30.36;100909.94;1736556;82;21154;-63
2021/03/26 10:35:22;;;;;;;8.93;6.80;;;;;;;20.17;26.71;100903.30;1735175;82;21483;-63
2021/03/26 10:38:03;;;;;;;8.90;6.85;;;;;;;20.30;29.77;100907.66;1712972;82;21322;-63
2021/03/26 10:40:42;;;;;;;8.23;5.83;;;;;;;20.39;26.09;100905.03;1736561;82;21171;-63
2021/03/26 10:43:21;;;;;;;9.88;6.42;;;;;;;20.31;29.19;100914.71;1725112;82;21445;-64
2021/03/26 10:46:06;;;;;;;;;;;;;;;20.26;29.08;100905.17;1734483;82;21151;-64
2021/03/26 10:48:48;;;;;;;7.33;5.10;;;;;;;20.29;29.18;100904.59;1731006;82;20414;-64
2021/03/26 10:51:41;;;;;;;8.28;5.45;;;;;;;20.42;29.05;100899.55;1736774;82;21577;-62
2021/03/26 10:54:50;;;;;;;8.50;4.37;;;;;;;20.73;30.01;100894.59;1737094;82;21543;-63
2021/03/26 10:57:45;;;;;;;5.40;3.90;;;;;;;20.87;27.41;100889.96;1737240;82;21624;-62
2021/03/26 11:00:27;;;;;;;6.67;4.65;;;;;;;21.12;27.17;100890.99;1737007;82;21291;-64
2021/03/26 11:03:10;;;;;;;7.15;4.67;;;;;;;21.16;27.90;100896.59;1730194;82;21117;-64
2021/03/26 11:05:58;;;;;;;6.37;4.42;;;;;;;21.08;28.05;100887.58;1713563;82;21609;-63
2021/03/26 11:08:46;;;;;;;6.45;4.80;;;;;;;20.98;27.44;100883.61;1733691;83;21535;-63
2021/03/26 11:11:25;;;;;;;6.70;4.80;;;;;;;20.93;28.54;100881.16;1728331;83;21605;-63
2021/03/26 11:14:12;;;;;;;6.67;4.67;;;;;;;20.94;27.54;100886.06;1734908;82;21134;-63
2021/03/26 11:16:59;;;;;;;4.87;3.60;;;;;;;20.93;27.16;100880.31;1725028;82;21125;-63
2021/03/26 11:19:36;;;;;;;5.28;3.52;;;;;;;21.00;26.24;100876.86;1730701;83;21144;-64
2021/03/26 11:22:19;;;;;;;5.58;4.00;;;;;;;21.30;27.47;100873.16;1728483;82;21674;-63
2021/03/26 11:25:09;;;;;;;5.70;3.90;;;;;;;21.58;26.74;100873.10;1713755;83;21201;-56
2021/03/26 11:27:51;;;;;;;6.22;4.15;;;;;;;21.25;23.02;100875.20;1708346;83;21633;-56
2021/03/26 11:30:53;;;;;;;10.78;5.45;;;;;;;20.76;25.98;100880.59;1732676;82;21150;-56
2021/03/26 11:33:57;;;;;;;13.50;9.93;;;;;;;20.68;27.04;100889.93;1723557;83;21630;-57
2021/03/26 11:36:52;;;;;;;7.72;5.75;;;;;;;20.64;26.85;100882.05;1728302;83;21240;-56
2021/03/26 11:39:50;;;;;;;7.05;4.83;;;;;;;20.90;27.20;100875.11;1731135;81;21142;-57
2021/03/26 11:42:29;;;;;;;7.20;5.20;;;;;;;21.23;25.71;100877.92;1732938;81;21640;-57
2021/03/26 11:45:02;;;;;;;6.90;5.22;;;;;;;21.24;25.48;100880.15;1713673;83;21653;-56
2021/03/26 11:47:37;;;;;;;6.62;5.37;;;;;;;21.05;23.63;100878.84;1716093;83;21590;-56
2021/03/26 11:50:27;;;;;;;6.78;4.95;;;;;;;20.69;23.63;100882.30;1739621;82;21151;-56
2021/03/26 11:53:18;;;;;;;6.47;4.87;;;;;;;20.51;23.25;100878.20;1722309;83;21115;-57
2021/03/26 11:56:22;;;;;;;7.87;4.60;;;;;;;20.58;25.27;100874.31;1700351;83;21219;-56
2021/03/26 11:59:31;;;;;;;6.60;4.30;;;;;;;20.73;26.84;100876.73;1767678;81;21139;-56
2021/03/26 12:02:23;;;;;;;5.47;4.33;;;;;;;20.99;26.43;100872.45;1691859;84;21273;-56
2021/03/26 12:04:56;;;;;;;7.20;5.15;;;;;;;21.20;24.59;100866.52;1759553;81;21148;-56
2021/03/26 12:07:31;;;;;;;6.55;4.22;;;;;;;20.80;22.04;100859.94;1759826;81;21579;-56
2021/03/26 12:10:06;;;;;;;5.50;3.40;;;;;;;20.54;23.78;100861.13;1771395;80;21166;-56
2021/03/26 12:12:44;;;;;;;5.40;3.83;;;;;;;20.51;23.13;100867.50;1778796;80;21305;-57
2021/03/26 12:15:26;;;;;;;5.97;4.00;;;;;;;20.73;25.83;100859.83;1784250;80;21147;-56
2021/03/26 12:18:12;;;;;;;6.78;4.12;;;;;;;20.70;23.58;100862.16;1781935;80;21131;-56
2021/03/26 12:20:42;;;;;;;5.33;3.60;;;;;;;20.28;24.00;100855.19;1776293;80;21158;-56
2021/03/26 12:23:27;;;;;;;7.90;5.40;;;;;;;20.30;24.22;100851.98;1684500;84;21163;-56
2021/03/26 12:26:06;;;;;;;5.15;3.50;;;;;;;20.39;25.32;100860.04;1767100;80;21185;-56
2021/03/26 12:28:55;;;;;;;5.35;3.50;;;;;;;20.38;25.25;100857.85;1770811;80;21467;-55
2021/03/26 12:31:28;;;;;;;6.03;3.50;;;;;;;20.59;25.82;100851.09;1716328;80;21139;-56
2021/03/26 12:34:05;;;;;;;6.05;3.92;;;;;;;20.92;25.28;100859.36;1767186;81;21143;-56
2021/03/26 12:36:40;;;;;;;5.72;3.90;;;;;;;21.06;24.95;100843.11;1773900;81;21549;-56
2021/03/26 12:39:37;;;;;;;5.92;4.03;;;;;;;20.92;21.91;100835.28;1753712;80;21151;-56
2021/03/26 12:42:20;;;;;;;11.40;7.00;;;;;;;20.78;23.70;100852.45;1784014;80;21166;-56
2021/03/26 12:45:11;;;;;;;7.53;5.12;;;;;;;20.84;23.74;100852.17;1783790;80;21304;-56
2021/03/26 12:47:42;;;;;;;9.08;4.80;;;;;;;;;;1765179;80;21169;-56
2021/03/26 12:50:14;;;;;;;7.75;5.15;;;;;;;20.55;22.41;100843.70;1750412;80;21143;-56
2021/03/26 12:53:06;;;;;;;6.75;4.58;;;;;;;20.49;23.66;100849.33;1748055;81;21172;-56
2021/03/26 12:55:48;;;;;;;6.67;4.65;;;;;;;20.45;24.43;100849.06;1753911;80;21217;-55
2021/03/26 12:58:42;;;;;;;7.45;5.33;;;;;;;20.56;24.79;100853.91;1762931;80;21121;-55